createdAt,value
2019-04-21T00:02:21.308Z,37.56
2019-04-21T00:05:06.079Z,37.56
2019-04-21T00:07:44.949Z,37.69
2019-04-21T00:12:51.810Z,37.96
2019-04-21T00:15:25.567Z,38.30
2019-04-21T00:17:56.114Z,38.41
2019-04-21T00:20:37.716Z,38.49
2019-04-21T00:23:19.568Z,38.66
2019-04-21T00:25:48.760Z,38.88
2019-04-21T00:28:47.469Z,38.81
2019-04-21T00:31:06.492Z,38.99
2019-04-21T00:33:31.329Z,39.07
2019-04-21T00:36:12.610Z,39.05
2019-04-21T00:39:07.062Z,39.16
2019-04-21T00:41:39.919Z,39.26
2019-04-21T00:44:04.734Z,39.26
2019-04-21T00:46:40.296Z,39.51
2019-04-21T00:49:16.922Z,39.60
2019-04-21T00:52:14.504Z,39.58
2019-04-21T00:54:51.961Z,39.67
2019-04-21T00:57:22.056Z,39.69
2019-04-21T00:59:55.749Z,39.96
2019-04-21T01:02:29.744Z,39.85
2019-04-21T01:05:11.193Z,39.89
2019-04-21T01:07:42.347Z,39.95
2019-04-21T01:10:09.425Z,40.04
2019-04-21T01:12:54.726Z,40.13
2019-04-21T01:18:04.831Z,40.38
2019-04-21T01:20:19.564Z,40.47
2019-04-21T01:22:53.798Z,40.51
2019-04-21T01:25:36.629Z,40.44
2019-04-21T01:28:18.825Z,40.64
2019-04-21T01:30:56.943Z,40.48
2019-04-21T01:33:42.932Z,40.51
2019-04-21T01:36:11.003Z,40.66
2019-04-21T01:38:52.478Z,40.61
2019-04-21T01:41:28.179Z,40.56
2019-04-21T01:43:54.553Z,40.68
2019-04-21T01:46:30.990Z,40.69
2019-04-21T01:49:02.153Z,40.66
2019-04-21T01:51:57.981Z,40.75
2019-04-21T01:54:31.750Z,40.90
2019-04-21T01:57:07.294Z,40.94
2019-04-21T01:59:41.614Z,41.06
2019-04-21T02:02:23.941Z,41.12
2019-04-21T02:05:03.174Z,41.24
2019-04-21T02:07:32.693Z,41.27
2019-04-21T02:10:11.131Z,41.36
2019-04-21T02:12:48.778Z,41.42
2019-04-21T02:15:26.604Z,41.50
2019-04-21T02:17:59.649Z,41.58
2019-04-21T02:20:21.583Z,41.69
2019-04-21T02:23:22.310Z,41.69
2019-04-21T02:25:47.430Z,41.67
2019-04-21T02:28:29.709Z,41.74
2019-04-21T02:31:18.095Z,41.80
2019-04-21T02:33:45.925Z,41.74
2019-04-21T02:41:30.797Z,42.09
2019-04-21T02:46:43.225Z,42.30
2019-04-21T02:49:22.813Z,42.44
2019-04-21T02:51:56.817Z,42.55
2019-04-21T02:57:08.585Z,42.54
2019-04-21T03:05:21.209Z,42.77
2019-04-21T03:07:55.234Z,42.78
2019-04-21T03:10:32.319Z,42.91
2019-04-21T03:15:38.910Z,42.98
2019-04-21T03:20:42.120Z,43.17
2019-04-21T03:23:27.818Z,43.15
2019-04-21T03:26:05.192Z,43.09
2019-04-21T03:34:18.546Z,43.39
2019-04-21T03:36:43.561Z,43.42
2019-04-21T03:44:12.318Z,43.35
2019-04-21T03:51:56.788Z,43.20
2019-04-21T03:54:37.158Z,43.05
2019-04-21T03:59:45.556Z,43.20
2019-04-21T04:02:22.994Z,43.01
2019-04-21T04:05:05.764Z,43.00
2019-04-21T04:07:44.700Z,42.91
2019-04-21T04:12:53.915Z,42.73
2019-04-21T04:15:35.164Z,42.60
2019-04-21T04:17:58.787Z,42.59
2019-04-21T04:20:39.941Z,42.57
2019-04-21T04:23:11.672Z,42.57
2019-04-21T04:28:36.223Z,42.50
2019-04-21T04:36:34.078Z,42.39
2019-04-21T04:44:07.088Z,42.41
2019-04-21T04:46:57.019Z,42.31
2019-04-21T04:49:23.681Z,42.48
2019-04-21T04:54:32.003Z,42.28
2019-04-21T04:57:08.252Z,42.13
2019-04-21T04:59:42.609Z,42.19
2019-04-21T05:02:19.826Z,42.06
2019-04-21T05:07:27.445Z,41.14
2019-04-21T05:10:05.820Z,40.55
2019-04-21T05:12:29.243Z,40.17
2019-04-21T05:15:10.106Z,39.70
2019-04-21T05:17:46.320Z,39.29
2019-04-21T05:20:15.815Z,38.81
2019-04-21T05:22:53.295Z,38.31
2019-04-21T05:25:23.077Z,37.83
2019-04-21T05:27:58.431Z,37.91
2019-04-21T05:31:11.497Z,37.63
2019-04-21T05:33:39.990Z,37.26
2019-04-21T05:36:27.818Z,37.23
2019-04-21T05:39:02.636Z,37.01
2019-04-21T05:41:32.385Z,37.10
2019-04-21T05:44:21.376Z,36.80
2019-04-21T05:47:05.967Z,36.84
2019-04-21T05:49:41.412Z,36.84
2019-04-21T05:52:14.597Z,36.51
2019-04-21T05:54:57.461Z,36.12
2019-04-21T05:57:28.887Z,35.65
2019-04-21T06:00:12.401Z,35.16
2019-04-21T06:02:44.128Z,34.31
2019-04-21T06:05:30.173Z,33.66
2019-04-21T06:07:52.410Z,33.98
2019-04-21T06:10:38.350Z,33.00
2019-04-21T06:13:12.923Z,32.78
2019-04-21T06:15:50.095Z,31.84
2019-04-21T06:18:27.273Z,32.46
2019-04-21T06:21:00.384Z,31.14
2019-04-21T06:23:30.125Z,30.90
2019-04-21T06:28:45.370Z,32.55
2019-04-21T06:31:43.714Z,31.75
2019-04-21T06:34:09.666Z,31.43
2019-04-21T06:36:44.058Z,31.04
2019-04-21T06:39:15.580Z,30.64
2019-04-21T06:41:58.520Z,30.64
2019-04-21T06:44:33.070Z,30.36
2019-04-21T06:47:17.573Z,29.71
2019-04-21T06:49:47.377Z,29.12
2019-04-21T06:52:42.318Z,28.89
2019-04-21T06:55:03.145Z,28.63
2019-04-21T06:57:34.673Z,29.15
2019-04-21T07:00:06.227Z,28.46
2019-04-21T07:05:20.432Z,27.63
2019-04-21T07:08:13.083Z,27.75
2019-04-21T07:10:31.761Z,27.13
2019-04-21T07:13:03.738Z,27.84
2019-04-21T07:15:43.885Z,27.24
2019-04-21T07:18:23.010Z,27.43
2019-04-21T07:20:53.137Z,26.81
2019-04-21T07:23:31.955Z,26.66
2019-04-21T07:26:06.123Z,26.35
2019-04-21T07:28:47.954Z,26.03
2019-04-21T07:31:18.968Z,25.57
2019-04-21T07:36:38.331Z,26.48
2019-04-21T07:39:03.367Z,26.59
2019-04-21T07:41:34.062Z,26.10
2019-04-21T07:44:06.212Z,26.55
2019-04-21T07:46:41.598Z,25.75
2019-04-21T07:49:33.882Z,25.35
2019-04-21T07:52:28.781Z,25.52
2019-04-21T07:55:16.671Z,25.10
2019-04-21T07:57:35.459Z,24.41
2019-04-21T08:00:21.038Z,25.47
2019-04-21T08:02:51.190Z,25.03
2019-04-21T08:05:27.915Z,24.93
2019-04-21T08:08:15.693Z,24.51
2019-04-21T08:10:40.833Z,24.96
2019-04-21T08:13:18.824Z,24.59
2019-04-21T08:15:52.813Z,24.42
2019-04-21T08:18:28.794Z,24.57
2019-04-21T08:21:02.724Z,23.90
2019-04-21T08:23:38.426Z,24.11
2019-04-21T08:26:22.692Z,24.39
2019-04-21T08:28:55.425Z,23.93
2019-04-21T08:31:32.267Z,23.67
2019-04-21T08:34:11.231Z,23.27
2019-04-21T08:36:34.035Z,23.83
2019-04-21T08:39:17.979Z,23.71
2019-04-21T08:41:51.268Z,23.90
2019-04-21T08:44:38.219Z,23.71
2019-04-21T08:47:07.882Z,23.54
2019-04-21T08:49:41.366Z,23.19
2019-04-21T08:52:22.766Z,23.18
2019-04-21T08:54:55.735Z,22.90
2019-04-21T08:57:37.690Z,23.01
2019-04-21T09:00:14.042Z,22.38
2019-04-21T09:03:02.379Z,22.89
2019-04-21T09:05:17.553Z,22.84
2019-04-21T09:07:57.205Z,22.51
2019-04-21T09:10:33.404Z,22.51
2019-04-21T09:13:04.532Z,22.29
2019-04-21T09:15:41.570Z,21.59
2019-04-21T09:18:13.403Z,21.62
2019-04-21T09:20:59.909Z,22.04
2019-04-21T09:23:28.805Z,21.50
2019-04-21T09:26:05.664Z,21.96
2019-04-21T09:28:35.735Z,21.04
2019-04-21T09:31:03.250Z,21.23
2019-04-21T09:33:42.484Z,21.09
2019-04-21T09:36:15.398Z,21.28
2019-04-21T09:38:57.683Z,21.08
2019-04-21T09:41:25.522Z,20.77
2019-04-21T09:43:59.698Z,20.53
2019-04-21T09:46:41.655Z,20.60
2019-04-21T09:49:13.681Z,20.48
2019-04-21T09:51:46.012Z,20.50
2019-04-21T09:54:24.831Z,20.35
2019-04-21T09:57:01.642Z,20.35
2019-04-21T09:59:37.112Z,20.00
2019-04-21T10:02:15.537Z,19.86
2019-04-21T10:04:43.210Z,19.36
2019-04-21T10:07:27.496Z,19.30
2019-04-21T10:09:53.013Z,19.31
2019-04-21T10:12:27.084Z,19.56
2019-04-21T10:15:02.593Z,19.06
2019-04-21T10:17:41.794Z,19.00
2019-04-21T10:20:17.176Z,18.96
2019-04-21T10:22:51.233Z,18.86
2019-04-21T10:25:25.173Z,18.49
2019-04-21T10:27:59.108Z,18.52
2019-04-21T10:30:33.128Z,17.85
2019-04-21T10:33:08.202Z,17.86
2019-04-21T10:35:43.368Z,17.47
2019-04-21T10:38:27.960Z,17.62
2019-04-21T10:40:53.667Z,16.45
2019-04-21T10:43:29.174Z,15.88
2019-04-21T10:46:04.487Z,16.35
2019-04-21T10:48:39.438Z,16.51
2019-04-21T10:51:14.879Z,16.97
2019-04-21T10:53:52.511Z,17.08
2019-04-21T10:56:31.304Z,16.97
2019-04-21T10:59:02.539Z,16.24
2019-04-21T11:01:36.880Z,16.47
2019-04-21T11:04:27.194Z,16.41
2019-04-21T11:07:04.329Z,16.55
2019-04-21T11:09:33.967Z,16.83
2019-04-21T11:12:08.297Z,16.91
2019-04-21T11:14:43.068Z,17.25
2019-04-21T11:17:18.223Z,16.96
2019-04-21T11:19:52.911Z,16.87
2019-04-21T11:22:26.900Z,17.28
2019-04-21T11:25:00.907Z,17.64
2019-04-21T11:27:35.123Z,17.75
2019-04-21T11:30:09.583Z,17.92
2019-04-21T11:32:46.312Z,18.23
2019-04-21T11:35:21.167Z,18.24
2019-04-21T11:38:07.252Z,18.20
2019-04-21T11:40:33.993Z,18.19
2019-04-21T11:43:09.514Z,18.41
2019-04-21T11:45:44.379Z,18.64
2019-04-21T11:48:19.926Z,18.76
2019-04-21T11:50:55.181Z,18.83
2019-04-21T11:53:30.664Z,19.05
2019-04-21T11:56:05.308Z,18.79
2019-04-21T11:58:39.574Z,18.78
2019-04-21T12:01:14.017Z,18.97
2019-04-21T12:03:49.533Z,19.06
2019-04-21T12:06:32.277Z,19.31
2019-04-21T12:09:01.604Z,19.57
2019-04-21T12:11:35.660Z,19.53
2019-04-21T12:14:10.014Z,19.74
2019-04-21T12:16:44.171Z,19.84
2019-04-21T12:19:18.657Z,19.97
2019-04-21T12:22:01.168Z,20.06
2019-04-21T12:24:31.246Z,20.22
2019-04-21T12:27:05.727Z,19.93
2019-04-21T12:29:43.935Z,19.93
2019-04-21T12:32:35.887Z,20.05
2019-04-21T12:35:12.271Z,20.21
2019-04-21T12:37:46.941Z,20.17
2019-04-21T12:40:21.293Z,20.47
2019-04-21T12:42:56.690Z,20.57
2019-04-21T12:45:31.603Z,20.60
2019-04-21T12:48:06.170Z,20.98
2019-04-21T12:50:41.681Z,20.60
2019-04-21T12:53:17.420Z,20.91
2019-04-21T12:55:51.745Z,20.95
2019-04-21T12:58:47.018Z,21.22
2019-04-21T13:01:21.169Z,21.35
2019-04-21T13:03:55.469Z,21.52
2019-04-21T13:06:29.734Z,21.64
2019-04-21T13:09:10.750Z,21.69
2019-04-21T13:11:41.585Z,21.55
2019-04-21T13:14:15.845Z,21.54
2019-04-21T13:16:50.125Z,21.77
2019-04-21T13:19:25.253Z,21.88
2019-04-21T13:22:00.151Z,22.04
2019-04-21T13:24:35.923Z,21.76
2019-04-21T13:27:11.341Z,21.80
2019-04-21T13:29:46.273Z,22.21
2019-04-21T13:32:20.510Z,22.06
2019-04-21T13:34:54.891Z,21.84
2019-04-21T13:37:29.748Z,22.26
2019-04-21T13:40:38.422Z,22.20
2019-04-21T13:42:57.239Z,22.18
2019-04-21T13:45:29.922Z,22.38
2019-04-21T13:48:04.479Z,22.31
2019-04-21T13:50:39.496Z,22.41
2019-04-21T13:53:14.670Z,22.41
2019-04-21T13:55:48.750Z,22.53
2019-04-21T13:58:24.180Z,22.60
2019-04-21T14:00:59.866Z,22.46
2019-04-21T14:03:35.382Z,22.64
2019-04-21T14:06:09.461Z,22.61
2019-04-21T14:08:45.264Z,22.67
2019-04-21T14:11:19.779Z,22.89
2019-04-21T14:13:56.489Z,23.07
2019-04-21T14:16:32.012Z,23.17
2019-04-21T14:19:07.486Z,25.08
2019-04-21T14:21:41.396Z,25.57
2019-04-21T14:24:17.078Z,25.77
2019-04-21T14:26:52.195Z,26.60
2019-04-21T14:29:26.133Z,27.50
2019-04-21T14:32:00.186Z,28.31
2019-04-21T14:34:34.010Z,28.73
2019-04-21T14:37:08.813Z,30.28
2019-04-21T14:39:53.892Z,29.85
2019-04-21T14:42:20.158Z,29.96
2019-04-21T14:44:54.705Z,30.07
2019-04-21T14:47:35.036Z,29.34
2019-04-21T14:50:28.313Z,29.78
2019-04-21T14:53:16.354Z,29.46
2019-04-21T14:55:51.168Z,29.62
2019-04-21T14:58:25.510Z,29.90
2019-04-21T15:01:02.358Z,29.45
2019-04-21T15:03:37.602Z,29.71
2019-04-21T15:06:11.700Z,29.26
2019-04-21T15:08:46.994Z,29.05
2019-04-21T15:11:22.157Z,28.84
2019-04-21T15:13:57.775Z,28.52
2019-04-21T15:16:32.896Z,28.65
2019-04-21T15:19:07.023Z,28.70
2019-04-21T15:21:40.924Z,29.32
2019-04-21T15:24:16.053Z,29.09
2019-04-21T15:26:52.548Z,28.97
2019-04-21T15:29:26.751Z,28.79
2019-04-21T15:32:00.951Z,28.82
2019-04-21T15:34:36.324Z,28.89
2019-04-21T15:37:10.464Z,28.58
2019-04-21T15:39:44.767Z,28.64
2019-04-21T15:42:18.886Z,28.46
2019-04-21T15:44:54.548Z,28.19
2019-04-21T15:47:28.552Z,28.60
2019-04-21T15:50:10.515Z,28.27
2019-04-21T15:52:43.460Z,28.62
2019-04-21T15:55:36.756Z,29.07
2019-04-21T15:58:16.230Z,29.34
2019-04-21T16:00:56.439Z,30.61
2019-04-21T16:03:31.109Z,29.78
2019-04-21T16:06:05.624Z,28.83
2019-04-21T16:08:39.716Z,28.53
2019-04-21T16:11:13.723Z,28.23
2019-04-21T16:13:47.908Z,28.27
2019-04-21T16:16:25.472Z,27.99
2019-04-21T16:18:58.347Z,28.44
2019-04-21T16:21:38.382Z,28.53
2019-04-21T16:24:09.018Z,28.30
2019-04-21T16:26:42.870Z,28.68
2019-04-21T16:29:17.410Z,29.21
2019-04-21T16:31:51.540Z,29.55
2019-04-21T16:34:36.029Z,29.91
2019-04-21T16:37:01.547Z,30.09
2019-04-21T16:39:35.876Z,30.99
2019-04-21T16:42:10.488Z,31.29
2019-04-21T16:44:45.083Z,31.50
2019-04-21T16:47:19.622Z,32.05
2019-04-21T16:49:54.295Z,32.98
2019-04-21T16:52:36.193Z,33.14
2019-04-21T16:55:14.944Z,32.93
2019-04-21T16:58:15.271Z,34.26
2019-04-21T17:00:57.318Z,33.84
2019-04-21T17:03:26.538Z,33.71
2019-04-21T17:06:04.579Z,34.27
2019-04-21T17:08:40.790Z,33.79
2019-04-21T17:11:25.319Z,34.26
2019-04-21T17:13:58.226Z,34.48
2019-04-21T17:17:00.290Z,34.07
2019-04-21T17:19:19.387Z,34.02
2019-04-21T17:21:46.099Z,34.47
2019-04-21T17:24:20.220Z,35.84
2019-04-21T17:26:53.357Z,35.25
2019-04-21T17:29:28.532Z,35.26
2019-04-21T17:32:04.783Z,35.41
2019-04-21T17:34:39.577Z,35.93
2019-04-21T17:37:15.231Z,35.89
2019-04-21T17:39:49.380Z,35.65
2019-04-21T17:42:33.518Z,35.44
2019-04-21T17:44:59.499Z,35.93
2019-04-21T17:47:44.658Z,36.11
2019-04-21T17:50:21.593Z,36.51
2019-04-21T17:53:08.302Z,35.81
2019-04-21T17:55:52.982Z,36.16
2019-04-21T17:58:42.857Z,35.89
2019-04-21T18:01:19.575Z,35.90
2019-04-21T18:03:58.420Z,36.10
2019-04-21T18:06:31.143Z,36.15
2019-04-21T18:09:15.837Z,36.24
2019-04-21T18:11:49.322Z,36.67
2019-04-21T18:14:00.228Z,37.26
2019-04-21T18:16:39.513Z,36.84
2019-04-21T18:19:08.828Z,36.91
2019-04-21T18:22:04.830Z,37.71
2019-04-21T18:24:48.015Z,37.82
2019-04-21T18:27:13.770Z,38.22
2019-04-21T18:29:50.495Z,38.30
2019-04-21T18:32:30.793Z,38.23
2019-04-21T18:35:17.060Z,38.29
2019-04-21T18:38:07.074Z,38.69
2019-04-21T18:40:36.445Z,38.89
2019-04-21T18:43:43.768Z,38.88
2019-04-21T18:46:13.517Z,38.98
2019-04-21T18:48:36.429Z,38.82
2019-04-21T18:51:11.395Z,38.87
2019-04-21T18:54:07.117Z,40.04
2019-04-21T18:56:27.638Z,39.77
2019-04-21T18:59:02.575Z,39.75
2019-04-21T19:01:38.499Z,39.86
2019-04-21T19:04:19.653Z,40.58
2019-04-21T19:07:03.057Z,40.29
2019-04-21T19:10:01.761Z,40.34
2019-04-21T19:12:25.348Z,40.45
2019-04-21T19:14:50.583Z,40.60
2019-04-21T19:22:42.054Z,40.88
2019-04-21T19:25:36.890Z,40.95
2019-04-21T19:27:54.750Z,41.15
2019-04-21T19:30:41.535Z,41.19
2019-04-21T19:33:10.386Z,41.18
2019-04-21T19:35:27.257Z,41.77
2019-04-21T19:38:07.085Z,41.73
2019-04-21T19:40:50.839Z,41.81
2019-04-21T19:43:37.056Z,42.01
2019-04-21T19:46:09.782Z,42.13
2019-04-21T19:48:52.735Z,42.29
2019-04-21T19:51:18.086Z,42.77
2019-04-21T19:53:50.435Z,42.60
2019-04-21T19:56:14.245Z,42.82
2019-04-21T19:58:49.249Z,42.84
2019-04-21T20:01:23.775Z,43.03
2019-04-21T20:04:00.881Z,42.83
2019-04-21T20:06:48.959Z,42.93
2019-04-21T20:09:27.803Z,42.96
2019-04-21T20:11:59.144Z,42.90
2019-04-21T20:14:59.104Z,43.18
2019-04-21T20:17:09.923Z,43.17
2019-04-21T20:19:34.265Z,43.48
2019-04-21T20:22:09.360Z,43.58
2019-04-21T20:24:49.886Z,43.81
2019-04-21T20:27:32.147Z,44.35
2019-04-21T20:30:15.811Z,43.81
2019-04-21T20:32:50.290Z,43.77
2019-04-21T20:35:46.854Z,43.69
2019-04-21T20:38:00.395Z,43.74
2019-04-21T20:40:31.810Z,43.87
2019-04-21T20:43:22.383Z,44.55
2019-04-21T20:45:52.668Z,44.44
2019-04-21T20:48:18.018Z,44.38
2019-04-21T20:51:06.437Z,44.62
2019-04-21T20:53:38.061Z,44.30
2019-04-21T20:56:08.677Z,44.33
2019-04-21T20:58:53.846Z,44.25
2019-04-21T21:01:39.374Z,44.18
2019-04-21T21:03:57.928Z,44.25
2019-04-21T21:06:38.537Z,44.19
2019-04-21T21:09:10.345Z,44.11
2019-04-21T21:12:04.099Z,44.07
2019-04-21T21:14:29.327Z,44.18
2019-04-21T21:17:03.715Z,44.15
2019-04-21T21:19:40.131Z,44.33
2019-04-21T21:22:08.300Z,44.32
2019-04-21T21:24:50.500Z,44.29
2019-04-21T21:27:19.490Z,44.42
2019-04-21T21:30:04.818Z,44.67
2019-04-21T21:32:38.584Z,45.15
2019-04-21T21:35:12.977Z,45.40
2019-04-21T21:37:51.470Z,45.56
2019-04-21T21:40:26.764Z,45.66
2019-04-21T21:42:46.163Z,45.65
2019-04-21T21:45:23.818Z,45.60
2019-04-21T21:48:12.635Z,45.78
2019-04-21T21:50:45.985Z,45.59
2019-04-21T21:53:14.521Z,45.51
2019-04-21T21:55:44.725Z,45.44
2019-04-21T21:58:25.301Z,45.57
2019-04-21T22:01:00.733Z,45.33
2019-04-21T22:03:38.035Z,45.36
2019-04-21T22:06:13.924Z,45.45
2019-04-21T22:08:44.253Z,45.59
2019-04-21T22:11:19.995Z,45.72
2019-04-21T22:14:02.183Z,46.01
2019-04-21T22:16:46.673Z,46.11
2019-04-21T22:19:22.942Z,46.53
2019-04-21T22:22:02.474Z,46.38
2019-04-21T22:24:36.539Z,46.10
2019-04-21T22:26:54.756Z,46.41
2019-04-21T22:29:37.825Z,46.45
2019-04-21T22:32:10.282Z,46.30
2019-04-21T22:35:05.304Z,46.35
2019-04-21T22:37:47.397Z,46.44
2019-04-21T22:40:23.476Z,46.37
2019-04-21T22:43:03.975Z,46.39
2019-04-21T22:45:25.281Z,46.42
2019-04-21T22:48:07.229Z,46.53
2019-04-21T22:50:38.425Z,46.54
2019-04-21T22:53:15.486Z,46.64
2019-04-21T22:55:56.351Z,46.65
2019-04-21T22:58:33.162Z,46.74
2019-04-21T23:01:03.813Z,46.83
2019-04-21T23:03:42.532Z,46.83
2019-04-21T23:06:19.617Z,46.86
2019-04-21T23:08:49.842Z,47.01
2019-04-21T23:11:29.265Z,46.96
2019-04-21T23:14:04.222Z,46.95
2019-04-21T23:16:38.459Z,46.96
2019-04-21T23:19:28.143Z,47.15
2019-04-21T23:22:04.202Z,47.15
2019-04-21T23:24:49.967Z,47.27
2019-04-21T23:27:11.686Z,47.59
2019-04-21T23:30:13.641Z,47.78
2019-04-21T23:32:23.834Z,47.96
2019-04-21T23:34:47.270Z,48.13
2019-04-21T23:37:25.277Z,48.12
2019-04-21T23:40:01.140Z,48.19
2019-04-21T23:42:37.079Z,48.10
2019-04-21T23:45:10.630Z,48.13
2019-04-21T23:48:00.678Z,48.21
2019-04-21T23:50:33.254Z,48.20
2019-04-21T23:52:57.431Z,48.17
2019-04-21T23:55:31.690Z,48.35
2019-04-21T23:58:11.399Z,48.36
